Time;durP1;ratioP1;P1;durP2;ratioP2;P2;SDS_P1;SDS_P2;PMS_P1;PMS_P2;Temp;Humidity;BMP_temperature;BMP_pressure;BME280_temperature;BME280_humidity;BME280_pressure;Samples;Min_cycle;Max_cycle;Signal;HPM_P1;HPM_P2
2023/07/20 17:41:31;;;;;;;3.75;1.40;;;19.70;99.90;;;;;;5065767;27;20771;-86
2023/07/20 17:43:57;;;;;;;5.13;1.38;;;20.50;99.90;;;;;;5066048;28;20039;-86
2023/07/20 17:46:22;;;;;;;5.18;3.15;;;20.70;99.90;;;;;;5066155;28;20024;-87
2023/07/20 17:48:48;;;;;;;3.50;1.65;;;20.80;99.90;;;;;;5066984;28;20438;-88
2023/07/20 17:51:15;;;;;;;2.22;1.50;;;20.90;99.90;;;;;;5063991;28;20029;-87
2023/07/20 17:53:40;;;;;;;3.42;1.52;;;20.90;99.90;;;;;;5064612;28;20431;-86
2023/07/20 17:56:07;;;;;;;1.42;1.33;;;20.90;99.90;;;;;;5065672;28;20027;-87
2023/07/20 17:58:33;;;;;;;4.05;1.40;;;20.90;99.90;;;;;;5065883;28;20083;-86
2023/07/20 18:00:59;;;;;;;1.52;1.30;;;21.00;99.90;;;;;;5062630;28;20504;-88
2023/07/20 18:03:25;;;;;;;5.80;1.17;;;20.80;99.90;;;;;;5065617;28;20025;-88
2023/07/20 18:05:51;;;;;;;9.20;1.55;;;20.90;99.90;;;;;;5065347;28;20489;-88
2023/07/20 18:08:17;;;;;;;3.58;1.27;;;20.90;99.90;;;;;;5066106;28;20029;-88
2023/07/20 18:10:43;;;;;;;5.80;2.13;;;20.70;99.90;;;;;;5063637;28;20029;-87
2023/07/20 18:13:08;;;;;;;2.17;1.25;;;20.60;99.90;;;;;;5065048;28;20037;-87
2023/07/20 18:15:34;;;;;;;2.33;1.75;;;20.50;99.90;;;;;;5065178;28;20481;-87
2023/07/20 18:18:01;;;;;;;8.00;3.22;;;20.30;99.90;;;;;;5059999;28;20508;-87
2023/07/20 18:20:27;;;;;;;4.30;2.70;;;20.20;99.90;;;;;;5064904;28;20029;-87
2023/07/20 18:22:53;;;;;;;1.95;1.55;;;20.30;99.90;;;;;;5065251;28;20029;-87
2023/07/20 18:25:19;;;;;;;1.77;1.45;;;20.40;99.90;;;;;;5066303;28;20032;-87
2023/07/20 18:27:44;;;;;;;1.67;1.42;;;20.20;99.90;;;;;;5064356;28;20029;-86
2023/07/20 18:30:12;;;;;;;1.55;1.45;;;20.30;99.90;;;;;;5065816;28;20111;-86
2023/07/20 18:32:37;;;;;;;6.32;1.42;;;20.20;99.90;;;;;;5063980;28;20016;-87
2023/07/20 18:35:03;;;;;;;1.48;1.15;;;20.30;99.90;;;;;;5065135;28;20040;-86
2023/07/20 18:37:29;;;;;;;1.33;1.20;;;20.30;99.90;;;;;;5064562;28;20024;-87
2023/07/20 18:39:55;;;;;;;4.18;1.40;;;20.10;99.90;;;;;;5059863;28;20036;-87
2023/07/20 18:42:20;;;;;;;1.50;1.30;;;20.10;99.90;;;;;;5065542;28;20025;-87
2023/07/20 18:44:46;;;;;;;1.40;1.20;;;19.90;99.90;;;;;;5063176;28;20152;-85
2023/07/20 18:47:11;;;;;;;1.63;1.30;;;19.80;99.90;;;;;;5064186;28;20024;-86
2023/07/20 18:49:37;;;;;;;1.52;1.30;;;19.70;99.90;;;;;;5062705;28;20029;-85
2023/07/20 18:52:05;;;;;;;3.22;1.42;;;19.50;99.90;;;;;;5055117;28;20025;-85
2023/07/20 18:54:30;;;;;;;5.15;1.50;;;19.60;99.90;;;;;;5051536;28;20017;-84
2023/07/20 18:56:57;;;;;;;3.15;1.30;;;19.50;99.90;;;;;;5039355;28;20087;-86
2023/07/20 18:59:22;;;;;;;2.50;1.20;;;19.50;99.90;;;;;;5051636;28;20554;-84
2023/07/20 19:01:48;;;;;;;6.53;1.55;;;19.60;99.90;;;;;;5049491;28;20060;-83
2023/07/20 19:04:14;;;;;;;1.60;1.50;;;19.50;99.90;;;;;;5050293;28;20032;-83
2023/07/20 19:06:39;;;;;;;3.40;1.30;;;19.50;99.90;;;;;;5049572;28;20061;-84
2023/07/20 19:09:05;;;;;;;1.85;1.67;;;19.60;99.90;;;;;;5050224;28;20377;-85
2023/07/20 19:11:30;;;;;;;1.67;1.40;;;19.50;99.90;;;;;;5051088;28;20028;-85
2023/07/20 19:13:56;;;;;;;4.82;1.60;;;19.40;99.90;;;;;;5035413;28;20026;-87
2023/07/20 19:16:23;;;;;;;3.15;1.27;;;19.30;99.90;;;;;;5033560;28;20041;-85
2023/07/20 19:18:49;;;;;;;1.83;1.33;;;19.40;99.90;;;;;;5050930;28;20384;-86
2023/07/20 19:21:16;;;;;;;2.22;1.55;;;19.30;99.90;;;;;;5055185;28;20048;-88
2023/07/20 19:23:42;;;;;;;1.90;1.40;;;19.20;99.90;;;;;;5050073;28;20039;-85
2023/07/20 19:26:09;;;;;;;2.47;1.40;;;19.30;99.90;;;;;;5049975;28;20025;-84
2023/07/20 19:28:36;;;;;;;2.55;1.60;;;19.10;99.90;;;;;;5048915;28;20104;-86
2023/07/20 19:31:03;;;;;;;2.35;1.30;;;19.20;99.90;;;;;;5040176;28;20020;-85
2023/07/20 19:33:28;;;;;;;2.55;1.45;;;19.20;99.90;;;;;;5036445;28;20444;-86
2023/07/20 19:35:55;;;;;;;4.20;1.40;;;19.20;99.90;;;;;;5032119;28;20025;-86
2023/07/20 19:38:26;;;;;;;4.25;1.58;;;19.10;99.90;;;;;;5038315;28;20052;-85
2023/07/20 19:40:53;;;;;;;2.00;1.40;;;19.10;99.90;;;;;;5031119;28;20072;-86
2023/07/20 19:43:21;;;;;;;1.27;1.20;;;19.10;99.90;;;;;;5031000;28;20112;-84
2023/07/20 19:45:48;;;;;;;;;;;18.90;99.90;;;;;;5030926;28;20303;-85
2023/07/20 19:48:13;;;;;;;2.65;1.55;;;18.80;99.90;;;;;;5048407;28;19959;-85
2023/07/20 19:50:43;;;;;;;2.17;1.45;;;18.50;99.90;;;;;;5044721;28;20022;-85
2023/07/20 19:53:08;;;;;;;2.03;1.50;;;18.50;99.90;;;;;;5037408;28;20090;-86
2023/07/20 19:55:34;;;;;;;2.25;1.40;;;18.40;99.90;;;;;;5043543;28;20030;-85
2023/07/20 19:58:02;;;;;;;2.63;1.35;;;18.40;99.90;;;;;;5041670;28;20039;-85
2023/07/20 20:00:28;;;;;;;2.35;1.40;;;18.70;99.90;;;;;;5048923;28;20033;-84
2023/07/20 20:02:54;;;;;;;1.50;1.40;;;18.50;99.90;;;;;;5033511;28;20039;-85
2023/07/20 20:05:20;;;;;;;2.42;1.50;;;18.50;99.90;;;;;;5050501;28;20025;-85
2023/07/20 20:07:46;;;;;;;2.53;1.50;;;18.50;99.90;;;;;;5049125;28;20484;-85
2023/07/20 20:10:13;;;;;;;3.20;1.55;;;18.40;99.90;;;;;;5047759;28;20025;-85
2023/07/20 20:12:39;;;;;;;2.50;1.20;;;18.30;99.90;;;;;;5050361;28;20037;-86
2023/07/20 20:15:05;;;;;;;3.30;1.70;;;18.30;99.90;;;;;;5046907;28;20029;-85
2023/07/20 20:17:31;;;;;;;3.47;1.40;;;18.20;99.90;;;;;;5045374;28;20026;-85
2023/07/20 20:19:56;;;;;;;2.15;1.40;;;18.20;99.90;;;;;;5030786;28;20033;-84
2023/07/20 20:22:22;;;;;;;2.92;1.40;;;18.20;99.90;;;;;;5043913;28;20030;-85
2023/07/20 20:24:47;;;;;;;2.70;1.52;;;18.00;99.90;;;;;;5029661;28;20606;-84
2023/07/20 20:27:13;;;;;;;1.83;1.40;;;18.10;99.90;;;;;;5030002;28;20018;-85
2023/07/20 20:29:39;;;;;;;2.42;1.42;;;18.00;99.90;;;;;;5044714;28;20029;-85
2023/07/20 20:32:05;;;;;;;3.28;1.50;;;18.10;99.90;;;;;;5048495;28;20028;-85
2023/07/20 20:34:31;;;;;;;2.92;1.65;;;18.10;99.90;;;;;;5030999;28;20032;-84
2023/07/20 20:36:57;;;;;;;4.72;1.50;;;18.10;99.90;;;;;;5032051;28;21491;-84
2023/07/20 20:39:26;;;;;;;3.50;1.50;;;17.90;99.90;;;;;;5049383;28;20021;-85
2023/07/20 20:41:52;;;;;;;2.20;1.50;;;17.90;99.90;;;;;;5048525;28;20079;-86
2023/07/20 20:44:21;;;;;;;3.33;1.30;;;17.60;99.90;;;;;;5047416;28;20045;-85
2023/07/20 20:46:48;;;;;;;2.25;1.70;;;17.80;99.90;;;;;;5036076;28;20037;-86
2023/07/20 20:49:14;;;;;;;2.47;1.50;;;17.80;99.90;;;;;;5029231;28;20017;-85
2023/07/20 20:51:42;;;;;;;3.75;1.52;;;17.80;99.90;;;;;;5039547;28;20036;-85
2023/07/20 20:54:10;;;;;;;5.03;1.75;;;17.70;99.90;;;;;;5048678;28;20027;-85
2023/07/20 20:56:35;;;;;;;;;;;17.60;99.90;;;;;;5030793;28;20040;-85
2023/07/20 20:59:01;;;;;;;4.97;1.65;;;17.40;99.90;;;;;;5049509;28;19909;-85
2023/07/20 21:01:27;;;;;;;3.58;1.48;;;17.50;99.90;;;;;;5050273;28;20044;-85
2023/07/20 21:03:53;;;;;;;2.45;1.40;;;17.50;99.90;;;;;;5049692;28;20021;-85
2023/07/20 21:06:19;;;;;;;2.22;1.40;;;17.40;99.90;;;;;;5049081;28;20036;-84
2023/07/20 21:08:45;;;;;;;2.25;1.40;;;17.10;99.90;;;;;;5047940;28;20047;-84
2023/07/20 21:11:11;;;;;;;2.30;1.50;;;17.40;99.90;;;;;;5039977;28;20527;-85
2023/07/20 21:13:37;;;;;;;3.40;1.40;;;17.20;99.90;;;;;;5039150;28;20029;-86
2023/07/20 21:16:02;;;;;;;1.92;1.48;;;17.10;99.90;;;;;;5043607;28;20489;-84
2023/07/20 21:18:28;;;;;;;4.60;1.48;;;17.10;99.90;;;;;;5049982;28;20021;-85
2023/07/20 21:20:54;;;;;;;4.75;1.50;;;17.30;99.90;;;;;;5049117;28;20536;-86
2023/07/20 21:23:20;;;;;;;1.50;1.40;;;17.20;99.90;;;;;;5051915;28;20529;-85
2023/07/20 21:25:47;;;;;;;2.00;1.60;;;17.20;99.90;;;;;;5038973;28;20034;-85
2023/07/20 21:28:13;;;;;;;4.40;1.50;;;17.30;99.90;;;;;;5041149;28;20056;-85
2023/07/20 21:30:41;;;;;;;2.17;1.65;;;17.40;99.90;;;;;;5047307;28;20080;-85
2023/07/20 21:33:07;;;;;;;2.13;1.50;;;17.40;99.90;;;;;;5048729;28;20025;-86
2023/07/20 21:35:33;;;;;;;3.45;1.90;;;17.30;99.90;;;;;;5048758;28;20040;-84
2023/07/20 21:37:59;;;;;;;2.55;1.60;;;17.30;99.90;;;;;;5048633;28;20036;-85
2023/07/20 21:40:25;;;;;;;1.80;1.40;;;17.40;99.90;;;;;;5047278;28;20037;-85
2023/07/20 21:42:51;;;;;;;5.20;1.80;;;17.50;99.90;;;;;;5048936;28;20025;-86
2023/07/20 21:45:16;;;;;;;4.53;1.80;;;17.50;99.90;;;;;;5047814;28;20543;-85
2023/07/20 21:47:42;;;;;;;2.50;1.60;;;17.40;99.90;;;;;;5048768;28;20021;-86
2023/07/20 21:50:09;;;;;;;4.07;1.45;;;17.40;99.90;;;;;;5047351;28;20025;-85
2023/07/20 21:52:34;;;;;;;1.95;1.52;;;17.40;99.90;;;;;;5049078;28;20477;-85
2023/07/20 21:55:00;;;;;;;4.28;1.50;;;17.40;99.90;;;;;;5049674;28;20021;-85
2023/07/20 21:57:25;;;;;;;2.40;1.50;;;17.40;99.90;;;;;;5047534;28;20068;-85
2023/07/20 21:59:51;;;;;;;2.55;1.50;;;17.40;99.90;;;;;;5048741;28;20107;-86
2023/07/20 22:02:17;;;;;;;2.30;1.50;;;17.50;99.90;;;;;;5046691;28;20083;-85
2023/07/20 22:04:42;;;;;;;2.22;1.58;;;17.40;99.90;;;;;;5027875;28;20026;-84
2023/07/20 22:07:13;;;;;;;2.40;1.55;;;17.30;99.90;;;;;;5028681;28;20037;-85
2023/07/20 22:09:42;;;;;;;4.70;1.80;;;17.30;99.90;;;;;;5028888;28;20024;-85
2023/07/20 22:12:10;;;;;;;2.20;1.58;;;17.20;99.90;;;;;;5028769;28;20037;-84
2023/07/20 22:14:39;;;;;;;;;;;17.30;99.90;;;;;;5029190;28;20045;-85
2023/07/20 22:17:06;;;;;;;3.08;1.85;;;17.30;99.90;;;;;;5028784;28;19959;-84
2023/07/20 22:19:36;;;;;;;3.08;1.85;;;17.40;99.90;;;;;;5031459;28;20040;-85
2023/07/20 22:22:05;;;;;;;3.72;1.88;;;17.30;99.90;;;;;;5049322;28;20021;-85
2023/07/20 22:24:34;;;;;;;2.55;1.70;;;17.30;99.90;;;;;;5049212;28;20017;-85
2023/07/20 22:27:00;;;;;;;3.17;1.95;;;17.20;99.90;;;;;;5050530;28;20389;-85
2023/07/20 22:29:30;;;;;;;3.55;1.70;;;17.20;99.90;;;;;;5052175;28;20031;-85
2023/07/20 22:31:59;;;;;;;2.90;1.73;;;17.30;99.90;;;;;;5062669;28;20029;-86
2023/07/20 22:34:32;;;;;;;2.63;2.00;;;17.30;99.90;;;;;;5033466;28;20266;-85
2023/07/20 22:36:59;;;;;;;2.35;1.70;;;17.20;99.90;;;;;;5035680;28;20053;-85
2023/07/20 22:39:25;;;;;;;2.25;2.00;;;17.30;99.90;;;;;;5042011;28;20029;-85
2023/07/20 22:41:50;;;;;;;2.33;1.90;;;17.40;99.90;;;;;;5048445;28;20388;-85
2023/07/20 22:44:16;;;;;;;2.65;1.83;;;17.10;99.90;;;;;;5045804;28;20093;-85
2023/07/20 22:46:42;;;;;;;1.75;1.60;;;17.20;99.90;;;;;;5033221;28;20404;-85
2023/07/20 22:49:08;;;;;;;3.10;1.75;;;17.00;99.90;;;;;;5038252;28;20029;-85
2023/07/20 22:51:33;;;;;;;3.03;1.90;;;17.00;99.90;;;;;;5047864;28;20550;-86
2023/07/20 22:53:59;;;;;;;2.90;1.75;;;17.10;99.90;;;;;;5039482;28;20029;-84
2023/07/20 22:56:26;;;;;;;1.98;1.77;;;17.00;99.90;;;;;;5051631;28;20389;-86
2023/07/20 22:58:51;;;;;;;1.80;1.70;;;16.90;99.90;;;;;;5050521;28;20028;-86
2023/07/20 23:01:17;;;;;;;6.47;2.10;;;17.00;99.90;;;;;;5051722;28;20485;-87
2023/07/20 23:03:42;;;;;;;2.47;1.92;;;17.00;99.90;;;;;;5051401;28;20067;-86
2023/07/20 23:06:08;;;;;;;3.92;2.03;;;17.20;99.90;;;;;;5051817;28;20163;-84
2023/07/20 23:08:35;;;;;;;5.75;2.13;;;17.10;99.90;;;;;;5052090;28;20227;-86
2023/07/20 23:11:01;;;;;;;3.07;2.20;;;17.10;99.90;;;;;;5042724;28;20026;-86
2023/07/20 23:13:28;;;;;;;5.53;2.17;;;17.10;99.90;;;;;;5051602;28;20404;-85
2023/07/20 23:15:54;;;;;;;3.17;2.10;;;17.10;99.90;;;;;;5051371;28;20032;-85
2023/07/20 23:18:24;;;;;;;2.03;1.88;;;17.00;99.90;;;;;;5051063;28;20024;-84
2023/07/20 23:20:49;;;;;;;3.03;2.17;;;16.90;99.90;;;;;;5051409;28;20029;-86
2023/07/20 23:23:15;;;;;;;3.08;2.08;;;17.00;99.90;;;;;;5051240;28;20542;-86
2023/07/20 23:25:41;;;;;;;2.20;2.00;;;17.00;99.90;;;;;;5049995;28;20027;-86
2023/07/20 23:28:06;;;;;;;4.03;2.60;;;17.00;99.90;;;;;;5043133;28;20060;-86
2023/07/20 23:30:32;;;;;;;3.47;2.30;;;16.90;99.90;;;;;;5031123;28;20029;-86
2023/07/20 23:32:57;;;;;;;3.60;2.42;;;17.00;99.90;;;;;;5031229;28;20061;-86
2023/07/20 23:35:23;;;;;;;4.13;2.25;;;16.90;99.90;;;;;;5031174;28;20025;-85
2023/07/20 23:37:50;;;;;;;5.90;2.60;;;16.80;99.90;;;;;;5030942;28;20025;-87
2023/07/20 23:40:16;;;;;;;4.00;2.33;;;16.80;99.90;;;;;;5031019;28;20041;-85
2023/07/20 23:42:42;;;;;;;3.35;2.50;;;16.90;99.90;;;;;;5029767;28;20022;-85
2023/07/20 23:45:09;;;;;;;2.55;2.30;;;16.90;99.90;;;;;;5039705;28;20025;-85
2023/07/20 23:47:36;;;;;;;3.65;2.33;;;17.10;99.90;;;;;;5050928;28;20032;-86
2023/07/20 23:50:04;;;;;;;5.18;2.40;;;16.90;99.90;;;;;;5050919;28;20025;-86
2023/07/20 23:52:34;;;;;;;4.75;2.58;;;16.90;99.90;;;;;;5050864;28;20021;-86
2023/07/20 23:55:01;;;;;;;2.63;2.40;;;17.00;99.90;;;;;;5050960;28;20492;-85
2023/07/20 23:57:27;;;;;;;3.00;2.30;;;16.80;99.90;;;;;;5050522;28;20009;-85
2023/07/20 23:59:53;;;;;;;3.85;2.38;;;16.70;99.90;;;;;;5050660;28;20029;-86
